Strona główna
METAR-TAF:

METAR-TAF

Lotnisko :

Port lotniczy Posadas

Posadas, Argentyna

Szerokość geograficzna: 27-22S, Długość geograficzna: 055-58W, wysokość: 131 m

Aktualna obserwacja pogody

Raport powstał 28 minut temu, godzina 13:00 UTC
Wiatr 6 kt od północny wschód
Temperatura 25°C
Wilgotność 57%
Ciśnienie 1017 hPa
Widzialność 10 km lub więcej
Brak chmur poniżej 1500 m i brak chmur cumulonimbus

METAR: SARP 201300Z 05006KT CAVOK 25/16 Q1017

czas: 10:28 (13:28 UTC)

Prognoza

Raport powstał 2 godziny i 28 minut temu, godzina 11:00 UTC
Prognoza ważna od 20 godzina 12 UTC do 21 godzina 12 UTC
Wiatr 10 kt od wschodnio-południowy wschód
Widzialność 10 km lub więcej
Brak chmur poniżej 1500 m i brak chmur cumulonimbus

TAF: SARP 201100Z 2012/2112 11010KT CAVOK TX32/2018Z TN17/2109Z

Obserwacja i prognoza pogody dla ponad 4000 lotnisk (raport METAR i TAF).

Dostępne stacje oznaczono żółtymi i czerwonymi punktami na mapie.

Najedź kursorem aby zobaczyć nazwę stacji.

Kliknij aby zobaczyć obserwacje i prognozy pogody.

Aby zmienić mapę: kliknij na zielony przycisk z czarnym krzyżykiem, aby powiększyć; na zielony przycisk z myślnikiem, aby pomniejszyć; na zielone strzałki, aby przejść do map sąsiednich.


METAR-TAF: